CYPO

Peawanuck Airport

Peawanuck, Ontario, Canada
METAR CYPO 240300Z AUTO 17008KT 9SM CLR 01/M04 A3039 RMK SLP297
Observed Flight Rules
Sep-24 @ 03:00 UTC (47 minutes ago) Visual Flight Rules
Wind Visibility Clouds
170° at 8 knots 9 miles
  • Clear skies
Temperatures Readings
Current 1°C / 34°F
Dewpoint -4°C / 25°F
Humidity 70%
Altimeter 30.39" Hg
Pressure 1029.7 hPa
Elevation 53
METAR CYPO 240300Z AUTO 17008KT 9SM CLR 01/M04 A3039 RMK SLP297
Observed Flight Rules
Sep-24 @ 03:00 UTC
(47 minutes ago)
VFR
Wind Visibility
170° at 8 knots 9 miles
Clouds
  • Clear skies
Temperature Dewpoint
1°C / 34°F -4°C / 25°F
Humidity Altimeter Pressure
70% 30.39" Hg 1029.7 hPa